Time;durP1;ratioP1;P1;durP2;ratioP2;P2;SDS_P1;SDS_P2;PMS_P1;PMS_P2;Temp;Humidity;BMP_temperature;BMP_pressure;BME280_temperature;BME280_humidity;BME280_pressure;Samples;Min_cycle;Max_cycle;Signal;HPM_P1;HPM_P2
2021/12/19 00:01:28;;;;;;;2.20;1.30;;;7.20;93.80;;;;;;5098593;28;20044;-79
2021/12/19 00:04:12;;;;;;;2.75;1.40;;;7.10;93.80;;;;;;5100832;28;20043;-77
2021/12/19 00:09:21;;;;;;;2.60;1.20;;;7.10;93.90;;;;;;5083369;28;20035;-77
2021/12/19 00:11:46;;;;;;;1.48;0.93;;;7.00;93.80;;;;;;5114276;28;20122;-78
2021/12/19 00:14:12;;;;;;;3.28;1.10;;;7.00;93.90;;;;;;5085654;28;20043;-77
2021/12/19 00:16:38;;;;;;;1.80;1.00;;;7.00;93.90;;;;;;5120483;28;20134;-78
2021/12/19 00:19:03;;;;;;;2.20;1.00;;;6.90;93.90;;;;;;5112968;28;20036;-77
2021/12/19 00:21:30;;;;;;;2.75;1.40;;;6.90;93.90;;;;;;5076929;28;20036;-78
2021/12/19 00:23:56;;;;;;;2.03;1.20;;;6.80;93.90;;;;;;5076967;28;20070;-78
2021/12/19 00:26:22;;;;;;;2.25;1.20;;;6.80;94.00;;;;;;5080276;28;20452;-78
2021/12/19 00:28:49;;;;;;;1.92;0.95;;;6.80;94.00;;;;;;5063693;28;20067;-78
2021/12/19 00:31:15;;;;;;;1.77;1.17;;;6.70;94.00;;;;;;5080080;28;20038;-76
2021/12/19 00:33:41;;;;;;;2.63;1.10;;;6.70;94.10;;;;;;5115478;28;20043;-80
2021/12/19 00:36:08;;;;;;;1.80;0.90;;;6.70;94.00;;;;;;5097448;28;20035;-80
2021/12/19 00:38:35;;;;;;;1.60;0.95;;;6.60;94.10;;;;;;5097563;28;20039;-78
2021/12/19 00:41:02;;;;;;;2.40;1.10;;;6.60;94.10;;;;;;5097135;28;20043;-77
2021/12/19 00:43:37;;;;;;;1.55;0.75;;;6.60;94.10;;;;;;5097529;28;20043;-78
2021/12/19 00:46:07;;;;;;;1.90;1.17;;;6.60;94.10;;;;;;5099168;28;20039;-75
2021/12/19 00:48:40;;;;;;;2.85;1.20;;;6.60;94.10;;;;;;5098118;28;20039;-78
2021/12/19 00:51:07;;;;;;;1.98;1.20;;;6.50;94.00;;;;;;5096171;28;20046;-78
2021/12/19 00:53:33;;;;;;;1.73;0.93;;;6.60;94.10;;;;;;5078041;28;20580;-78
2021/12/19 00:55:59;;;;;;;1.25;0.90;;;6.60;94.10;;;;;;5097677;28;20111;-77
2021/12/19 00:58:25;;;;;;;1.40;0.85;;;6.60;94.40;;;;;;5080359;28;20393;-79
2021/12/19 01:00:51;;;;;;;1.52;0.70;;;6.50;94.10;;;;;;5080936;28;20073;-79
2021/12/19 01:03:17;;;;;;;2.20;0.90;;;6.60;94.10;;;;;;5063878;28;20043;-78
2021/12/19 01:05:44;;;;;;;1.98;0.95;;;6.60;94.10;;;;;;5096877;28;20517;-78
2021/12/19 01:08:12;;;;;;;1.73;0.82;;;6.60;94.10;;;;;;5096806;28;20408;-78
2021/12/19 01:10:39;;;;;;;1.55;0.85;;;6.60;94.00;;;;;;5096921;28;20412;-78
2021/12/19 01:13:05;;;;;;;2.10;1.05;;;6.60;94.00;;;;;;5095192;28;20487;-80
2021/12/19 01:15:32;;;;;;;2.63;1.10;;;6.60;94.00;;;;;;5080391;28;20039;-80
2021/12/19 01:17:58;;;;;;;2.50;0.98;;;6.60;94.00;;;;;;5079889;28;20039;-78
2021/12/19 01:20:26;;;;;;;3.58;1.23;;;6.60;94.10;;;;;;5115021;28;20039;-78
2021/12/19 01:22:53;;;;;;;1.85;0.90;;;6.60;94.10;;;;;;5097396;28;20120;-78
2021/12/19 01:25:19;;;;;;;2.97;1.25;;;6.60;94.10;;;;;;5115486;28;20193;-81
2021/12/19 01:27:46;;;;;;;3.67;1.50;;;6.70;94.00;;;;;;5118766;28;20531;-79
2021/12/19 01:30:12;;;;;;;2.55;0.95;;;6.60;94.00;;;;;;5097229;28;20036;-78
2021/12/19 01:32:40;;;;;;;3.22;0.98;;;6.60;94.00;;;;;;5097101;28;20384;-77
2021/12/19 01:35:07;;;;;;;2.85;1.10;;;6.60;94.00;;;;;;5082000;28;20040;-78
2021/12/19 01:37:33;;;;;;;2.33;0.90;;;6.60;94.00;;;;;;5105639;28;20069;-78
2021/12/19 01:39:59;;;;;;;3.63;1.33;;;6.60;94.00;;;;;;5079228;28;20035;-78
2021/12/19 01:42:37;;;;;;;1.65;1.08;;;6.60;94.00;;;;;;5115013;28;20050;-79
2021/12/19 01:45:06;;;;;;;2.38;1.10;;;6.60;94.00;;;;;;5095606;28;20095;-79
2021/12/19 01:47:34;;;;;;;2.35;1.02;;;6.60;94.00;;;;;;5079340;28;20084;-79
2021/12/19 01:50:00;;;;;;;2.65;1.00;;;6.70;94.00;;;;;;5079513;28;20489;-79
2021/12/19 01:52:28;;;;;;;2.42;1.05;;;6.60;94.00;;;;;;5097004;28;20504;-79
2021/12/19 01:54:55;;;;;;;3.58;1.33;;;6.60;94.00;;;;;;5061060;28;20039;-79
2021/12/19 01:57:22;;;;;;;3.92;1.50;;;6.60;94.00;;;;;;5097205;28;20063;-80
2021/12/19 01:59:48;;;;;;;3.92;1.40;;;6.70;94.00;;;;;;5079069;28;20404;-77
2021/12/19 02:02:14;;;;;;;3.40;1.52;;;6.60;94.00;;;;;;5096029;28;20031;-77
2021/12/19 02:04:42;;;;;;;4.15;1.50;;;6.70;94.00;;;;;;5062232;28;20043;-77
2021/12/19 02:07:10;;;;;;;3.20;1.20;;;6.60;94.00;;;;;;5096022;28;20044;-77
2021/12/19 02:09:36;;;;;;;2.67;1.13;;;6.70;94.00;;;;;;5114426;28;20043;-78
2021/12/19 02:12:04;;;;;;;3.72;1.20;;;6.70;94.00;;;;;;5114207;28;20451;-77
2021/12/19 02:14:30;;;;;;;2.85;1.20;;;6.70;94.00;;;;;;5095727;28;20131;-77
2021/12/19 02:16:56;;;;;;;3.03;1.17;;;6.70;94.00;;;;;;5114190;28;20058;-77
2021/12/19 02:19:25;;;;;;;4.55;1.45;;;6.70;94.00;;;;;;5078974;28;20055;-77
2021/12/19 02:21:51;;;;;;;4.35;1.40;;;6.80;94.00;;;;;;5080023;28;20488;-77
2021/12/19 02:24:18;;;;;;;5.88;2.08;;;6.70;94.00;;;;;;5095596;28;20397;-77
2021/12/19 02:26:44;;;;;;;4.32;1.45;;;6.70;94.00;;;;;;5114144;28;20063;-77
2021/12/19 02:29:11;;;;;;;3.05;1.42;;;6.70;93.90;;;;;;5079035;28;20069;-77
2021/12/19 02:31:38;;;;;;;3.20;1.45;;;6.80;94.00;;;;;;5113965;28;20488;-77
2021/12/19 02:34:10;;;;;;;5.13;1.23;;;6.80;94.00;;;;;;5078369;28;20043;-77
2021/12/19 02:36:56;;;;;;;3.55;1.45;;;6.70;93.90;;;;;;5096660;28;20035;-77
2021/12/19 02:50:19;;;;;;;3.35;1.20;;;6.80;94.00;;;;;;5096817;28;20047;-77
2021/12/19 02:52:46;;;;;;;2.67;1.20;;;6.90;94.00;;;;;;5114334;28;20035;-77
2021/12/19 02:55:14;;;;;;;2.83;1.35;;;6.80;93.90;;;;;;5095579;28;20275;-77
2021/12/19 02:57:40;;;;;;;2.42;1.17;;;6.80;94.00;;;;;;5113210;28;20047;-77
2021/12/19 03:00:11;;;;;;;4.45;1.50;;;6.80;94.00;;;;;;5095283;28;20050;-77
2021/12/19 03:02:38;;;;;;;4.50;1.57;;;6.80;94.00;;;;;;5094925;28;20130;-77
2021/12/19 03:05:04;;;;;;;2.83;1.13;;;6.80;94.00;;;;;;5094998;28;20061;-77
2021/12/19 03:07:30;;;;;;;2.28;0.95;;;6.80;94.00;;;;;;5078459;28;20046;-77
2021/12/19 03:10:35;;;;;;;2.72;1.17;;;6.90;94.00;;;;;;5112983;28;20035;-77
2021/12/19 03:13:02;;;;;;;2.60;1.30;;;6.80;94.00;;;;;;5097555;28;20028;-77
2021/12/19 03:18:14;;;;;;;2.92;1.40;;;6.90;94.00;;;;;;5097357;28;20044;-77
2021/12/19 03:20:41;;;;;;;6.75;2.08;;;6.90;94.10;;;;;;5113061;28;20065;-77
2021/12/19 03:23:10;;;;;;;3.67;1.60;;;6.90;94.00;;;;;;5094891;28;20130;-77
2021/12/19 03:25:36;;;;;;;4.28;1.45;;;6.90;94.00;;;;;;5092835;28;20096;-77
2021/12/19 03:28:05;;;;;;;3.03;1.23;;;6.80;94.00;;;;;;5077779;28;20043;-77
2021/12/19 03:30:32;;;;;;;3.50;1.30;;;6.90;94.00;;;;;;5113292;28;20116;-77
2021/12/19 03:32:58;;;;;;;2.88;1.20;;;6.90;94.00;;;;;;5094676;28;20089;-77
2021/12/19 03:35:25;;;;;;;3.28;1.20;;;6.90;94.00;;;;;;5094917;28;20062;-77
2021/12/19 03:37:52;;;;;;;2.72;1.23;;;6.90;94.00;;;;;;5078080;28;20043;-77
2021/12/19 03:40:24;;;;;;;1.95;0.93;;;6.80;94.00;;;;;;5095070;28;20061;-77
2021/12/19 03:42:52;;;;;;;3.72;1.33;;;6.90;94.00;;;;;;5079092;28;20126;-77
2021/12/19 03:45:21;;;;;;;2.75;1.13;;;6.90;94.00;;;;;;5094432;28;20507;-77
2021/12/19 03:47:47;;;;;;;3.72;1.35;;;7.00;94.00;;;;;;5094126;28;20050;-77
2021/12/19 03:50:20;;;;;;;1.50;0.90;;;7.00;94.00;;;;;;5077187;28;20055;-76
2021/12/19 03:52:46;;;;;;;2.75;1.10;;;6.90;94.00;;;;;;5112965;28;20035;-77
2021/12/19 03:55:12;;;;;;;2.33;0.98;;;6.90;94.00;;;;;;5093870;28;20481;-77
2021/12/19 03:57:38;;;;;;;2.47;1.20;;;6.90;94.00;;;;;;5077226;28;20039;-77
2021/12/19 04:00:09;;;;;;;2.55;1.00;;;6.90;94.00;;;;;;5114532;28;20381;-77
2021/12/19 04:02:35;;;;;;;2.17;1.10;;;7.00;94.00;;;;;;5116052;28;20036;-77
2021/12/19 04:05:01;;;;;;;2.00;0.98;;;7.00;94.00;;;;;;5080642;28;20564;-77
2021/12/19 04:07:28;;;;;;;3.75;1.45;;;7.00;94.00;;;;;;5098059;28;20061;-76
2021/12/19 04:09:54;;;;;;;2.60;1.10;;;7.00;94.00;;;;;;5098315;28;20044;-77
2021/12/19 04:12:24;;;;;;;2.97;1.20;;;7.00;94.00;;;;;;5097924;28;20035;-77
2021/12/19 04:14:49;;;;;;;2.20;1.00;;;7.00;94.10;;;;;;5115950;28;20036;-78
2021/12/19 04:17:15;;;;;;;1.92;1.02;;;7.00;94.10;;;;;;5097503;28;20396;-77
2021/12/19 04:19:41;;;;;;;2.70;1.10;;;7.00;94.10;;;;;;5116044;28;20040;-77
2021/12/19 04:22:08;;;;;;;3.90;1.30;;;7.00;94.10;;;;;;5097932;28;20044;-77
2021/12/19 04:24:33;;;;;;;3.65;1.38;;;7.10;94.10;;;;;;5097603;28;20040;-77
2021/12/19 04:26:59;;;;;;;3.08;1.27;;;7.00;94.10;;;;;;5115528;28;20112;-77
2021/12/19 04:29:26;;;;;;;4.03;1.58;;;7.00;94.10;;;;;;5115760;28;20594;-77
2021/12/19 04:31:52;;;;;;;3.38;1.60;;;7.00;94.10;;;;;;5080745;28;20039;-77
2021/12/19 04:34:19;;;;;;;3.15;1.38;;;7.00;94.10;;;;;;5080419;28;20036;-76
2021/12/19 04:36:49;;;;;;;4.72;1.80;;;7.00;94.10;;;;;;5097320;28;20040;-77
2021/12/19 04:39:32;;;;;;;3.75;1.70;;;7.00;94.00;;;;;;5115485;28;20049;-77
2021/12/19 04:50:58;;;;;;;4.25;2.03;;;7.00;94.10;;;;;;5100386;28;20101;-77
2021/12/19 05:03:50;;;;;;;3.40;1.42;;;7.10;94.10;;;;;;5097192;28;20101;-78
2021/12/19 05:06:33;;;;;;;3.70;1.63;;;7.00;94.10;;;;;;5082230;28;20512;-77
2021/12/19 05:14:24;;;;;;;4.03;1.60;;;7.00;94.10;;;;;;5099108;28;20051;-77
2021/12/19 05:16:50;;;;;;;2.88;1.30;;;7.10;94.10;;;;;;5115203;28;20036;-77
2021/12/19 05:19:31;;;;;;;3.25;1.60;;;7.10;94.10;;;;;;5113029;28;20078;-77
2021/12/19 05:22:01;;;;;;;3.42;1.40;;;7.10;94.10;;;;;;5096641;28;20055;-77
2021/12/19 05:27:06;;;;;;;3.28;1.02;;;7.10;94.10;;;;;;5115036;28;20526;-77
2021/12/19 05:29:33;;;;;;;2.88;1.30;;;7.10;94.10;;;;;;5096857;28;20054;-77
2021/12/19 05:31:59;;;;;;;2.20;1.15;;;7.10;94.10;;;;;;5097362;28;20472;-77
2021/12/19 05:34:26;;;;;;;1.90;1.08;;;7.20;94.10;;;;;;5064541;28;20058;-77
2021/12/19 05:47:28;;;;;;;2.83;1.00;;;7.30;94.10;;;;;;5097305;28;20047;-78
2021/12/19 05:49:54;;;;;;;2.58;1.17;;;7.30;94.10;;;;;;5079389;28;20088;-78
2021/12/19 05:52:20;;;;;;;2.50;0.98;;;7.20;94.10;;;;;;5114908;28;20032;-77
2021/12/19 05:54:46;;;;;;;2.47;1.00;;;7.30;94.10;;;;;;5096697;28;20040;-77
2021/12/19 05:57:11;;;;;;;1.65;0.90;;;7.30;94.10;;;;;;5114782;28;20031;-77
2021/12/19 05:59:37;;;;;;;1.27;0.70;;;7.40;94.10;;;;;;5114776;28;20039;-77
2021/12/19 06:02:03;;;;;;;1.13;0.70;;;7.30;94.10;;;;;;5114848;28;20070;-77
2021/12/19 06:04:29;;;;;;;1.42;0.70;;;7.30;94.10;;;;;;5114540;28;20396;-76
2021/12/19 06:06:55;;;;;;;1.88;0.90;;;7.30;94.10;;;;;;5096129;28;20044;-77
2021/12/19 06:09:21;;;;;;;1.15;0.70;;;7.30;94.10;;;;;;5114056;28;20035;-77
2021/12/19 06:11:46;;;;;;;1.25;0.57;;;7.30;94.10;;;;;;5079088;28;20032;-77
2021/12/19 06:14:12;;;;;;;0.73;0.50;;;7.30;94.20;;;;;;5095970;28;20031;-77
2021/12/19 06:16:38;;;;;;;1.83;0.73;;;7.40;94.20;;;;;;5095852;28;20047;-77
2021/12/19 06:19:04;;;;;;;1.00;0.50;;;7.30;94.20;;;;;;5114298;28;20031;-77
2021/12/19 06:21:29;;;;;;;1.20;0.57;;;7.40;94.20;;;;;;5095574;28;20031;-77
2021/12/19 06:23:56;;;;;;;1.23;0.70;;;7.40;94.20;;;;;;5095178;28;20031;-76
2021/12/19 06:26:22;;;;;;;0.70;0.40;;;7.40;94.20;;;;;;5095717;28;20055;-77
2021/12/19 06:28:48;;;;;;;0.95;0.63;;;7.40;94.20;;;;;;5113912;28;20031;-77
2021/12/19 06:31:17;;;;;;;1.52;0.70;;;7.50;94.20;;;;;;5114159;28;20075;-78
2021/12/19 06:33:43;;;;;;;1.02;0.45;;;7.40;94.20;;;;;;5113913;28;20553;-78
2021/12/19 06:36:09;;;;;;;1.25;0.70;;;7.40;94.20;;;;;;5078752;28;20077;-78
2021/12/19 06:38:36;;;;;;;1.10;0.50;;;7.50;94.20;;;;;;5062489;28;20062;-78
2021/12/19 06:41:02;;;;;;;0.82;0.68;;;7.50;94.20;;;;;;5096224;28;20131;-78
2021/12/19 06:43:30;;;;;;;1.00;0.50;;;7.50;94.20;;;;;;5114165;28;20145;-78
2021/12/19 06:45:56;;;;;;;0.70;0.50;;;7.50;94.20;;;;;;5095884;28;20036;-78
2021/12/19 06:48:24;;;;;;;0.90;0.55;;;7.40;94.10;;;;;;5095424;28;20123;-78
2021/12/19 06:50:51;;;;;;;1.17;0.43;;;7.40;94.10;;;;;;5113655;28;20442;-77
2021/12/19 06:53:17;;;;;;;0.50;0.30;;;7.40;94.20;;;;;;5095554;28;20040;-78
2021/12/19 06:55:44;;;;;;;1.38;0.45;;;7.40;94.40;;;;;;5078642;28;20110;-78
2021/12/19 06:58:10;;;;;;;0.98;0.30;;;7.40;94.20;;;;;;5093633;28;20047;-78
2021/12/19 07:00:36;;;;;;;0.52;0.38;;;7.30;94.20;;;;;;5095825;28;20051;-77
2021/12/19 07:03:02;;;;;;;1.40;0.40;;;7.40;94.20;;;;;;5095593;28;20035;-78
2021/12/19 07:05:27;;;;;;;1.15;0.43;;;7.30;94.20;;;;;;5113662;28;20047;-78
2021/12/19 07:07:53;;;;;;;0.77;0.50;;;7.30;94.20;;;;;;5113555;28;20039;-78
2021/12/19 07:10:19;;;;;;;0.80;0.30;;;7.30;94.20;;;;;;5094936;28;20051;-78
2021/12/19 07:12:45;;;;;;;0.95;0.40;;;7.30;94.20;;;;;;5095236;28;20083;-78
2021/12/19 07:15:14;;;;;;;1.00;0.30;;;7.30;94.20;;;;;;5095224;28;20047;-78
2021/12/19 07:17:40;;;;;;;1.77;0.50;;;7.30;94.30;;;;;;5078346;28;20043;-78
2021/12/19 07:20:07;;;;;;;0.40;0.30;;;7.30;94.30;;;;;;5078334;28;20103;-78
2021/12/19 07:22:32;;;;;;;0.40;0.15;;;7.20;94.20;;;;;;5113586;28;20035;-78
2021/12/19 07:24:59;;;;;;;0.38;0.28;;;7.20;94.20;;;;;;5094739;28;20510;-78
2021/12/19 07:27:24;;;;;;;0.85;0.38;;;7.20;94.20;;;;;;5094805;28;20480;-78
2021/12/19 07:29:52;;;;;;;0.40;0.30;;;7.20;94.20;;;;;;5094782;28;20081;-78
2021/12/19 07:32:18;;;;;;;0.47;0.25;;;7.10;94.20;;;;;;5113263;28;20074;-78
2021/12/19 07:34:46;;;;;;;0.68;0.20;;;7.10;94.20;;;;;;5094344;28;20067;-78
2021/12/19 07:37:12;;;;;;;0.30;0.10;;;7.00;94.30;;;;;;5113427;28;20035;-78
2021/12/19 07:39:51;;;;;;;0.17;0.10;;;7.00;94.30;;;;;;5094964;28;20126;-79
2021/12/19 07:42:16;;;;;;;0.47;0.20;;;6.90;94.30;;;;;;5081456;28;20377;-78
2021/12/19 07:44:42;;;;;;;0.20;0.20;;;7.00;94.30;;;;;;5094672;28;20127;-78
2021/12/19 07:47:08;;;;;;;0.40;0.20;;;7.00;94.40;;;;;;5094351;28;20058;-77
2021/12/19 07:49:35;;;;;;;0.35;0.10;;;7.00;94.30;;;;;;5095381;28;20541;-78
2021/12/19 07:52:01;;;;;;;0.32;0.20;;;7.00;94.40;;;;;;5094981;28;20039;-78
2021/12/19 07:54:27;;;;;;;0.10;0.10;;;7.00;94.40;;;;;;5077451;28;20050;-78
2021/12/19 07:56:52;;;;;;;0.30;0.20;;;7.00;94.40;;;;;;5094575;28;20039;-78
2021/12/19 07:59:18;;;;;;;0.40;0.10;;;7.00;94.30;;;;;;5112908;28;20050;-78
2021/12/19 08:01:44;;;;;;;0.30;0.10;;;7.00;94.30;;;;;;5077446;28;20126;-78
2021/12/19 08:04:10;;;;;;;0.25;0.20;;;7.00;94.30;;;;;;5094740;28;20043;-78
2021/12/19 08:06:37;;;;;;;0.30;0.10;;;7.00;94.30;;;;;;5094391;28;20514;-78
2021/12/19 08:09:09;;;;;;;0.10;0.10;;;7.00;94.30;;;;;;5058613;28;20081;-78
2021/12/19 08:11:42;;;;;;;0.20;0.00;;;7.00;94.30;;;;;;5112310;28;20485;-77
2021/12/19 08:14:11;;;;;;;0.60;0.25;;;7.00;94.30;;;;;;5062579;28;20044;-78
2021/12/19 08:16:37;;;;;;;1.15;0.20;;;7.00;94.30;;;;;;5092636;28;20115;-78
2021/12/19 08:19:04;;;;;;;0.35;0.10;;;7.00;94.20;;;;;;5094094;28;20404;-77
2021/12/19 08:21:29;;;;;;;0.38;0.20;;;7.00;94.30;;;;;;5093872;28;20036;-78
2021/12/19 08:24:00;;;;;;;0.35;0.20;;;7.00;94.20;;;;;;5076956;28;20122;-78
2021/12/19 08:26:26;;;;;;;0.45;0.40;;;7.00;94.20;;;;;;5112753;28;20044;-75
2021/12/19 08:28:52;;;;;;;0.63;0.28;;;7.00;94.20;;;;;;5058439;28;20441;-79
2021/12/19 08:31:19;;;;;;;0.20;0.20;;;7.00;94.20;;;;;;5060866;28;20050;-78
2021/12/19 08:33:46;;;;;;;0.10;0.10;;;7.00;94.20;;;;;;5094013;28;20050;-78
2021/12/19 08:36:12;;;;;;;0.25;0.10;;;7.00;94.20;;;;;;5060990;28;20044;-78
2021/12/19 08:38:38;;;;;;;0.47;0.20;;;7.00;94.20;;;;;;5112254;28;20130;-78
2021/12/19 08:41:03;;;;;;;0.32;0.13;;;7.00;94.20;;;;;;5094103;28;20126;-78
2021/12/19 08:43:29;;;;;;;0.30;0.20;;;7.00;94.20;;;;;;5112283;28;20043;-79
2021/12/19 08:45:55;;;;;;;0.20;0.10;;;7.00;94.20;;;;;;5096332;28;20092;-79
2021/12/19 08:48:21;;;;;;;0.10;0.10;;;6.90;94.50;;;;;;5116770;28;20052;-78
2021/12/19 08:50:47;;;;;;;0.50;0.10;;;6.90;94.20;;;;;;5080569;28;20036;-77
2021/12/19 08:53:13;;;;;;;0.32;0.10;;;7.00;94.30;;;;;;5063924;28;20042;-77
2021/12/19 08:55:39;;;;;;;0.20;0.20;;;7.00;94.40;;;;;;5115947;28;20385;-78
2021/12/19 08:58:06;;;;;;;1.10;0.20;;;7.00;94.20;;;;;;5115532;28;20042;-78
2021/12/19 09:00:33;;;;;;;0.10;0.10;;;7.00;94.20;;;;;;5063617;28;20043;-77
2021/12/19 09:03:00;;;;;;;0.15;0.15;;;7.00;94.20;;;;;;5080292;28;20401;-77
2021/12/19 09:05:29;;;;;;;0.40;0.10;;;7.10;94.20;;;;;;5080172;28;20106;-78
2021/12/19 09:07:55;;;;;;;0.28;0.10;;;7.10;94.10;;;;;;5096863;28;20035;-78
2021/12/19 09:10:22;;;;;;;0.22;0.17;;;7.20;94.20;;;;;;5115096;28;20036;-78
2021/12/19 09:12:48;;;;;;;0.10;0.10;;;7.10;94.10;;;;;;5080249;28;20083;-78
2021/12/19 09:15:15;;;;;;;0.10;0.10;;;7.10;94.10;;;;;;5115134;28;20055;-77
2021/12/19 09:17:41;;;;;;;0.20;0.20;;;7.10;94.10;;;;;;5080180;28;20036;-78
2021/12/19 09:20:08;;;;;;;0.17;0.13;;;7.10;94.10;;;;;;5097277;28;20062;-79
2021/12/19 09:22:35;;;;;;;0.10;0.10;;;7.20;94.10;;;;;;5079902;28;20040;-81
2021/12/19 09:25:01;;;;;;;0.10;0.10;;;7.20;94.10;;;;;;5063731;28;20035;-81
2021/12/19 09:27:27;;;;;;;0.50;0.15;;;7.20;94.10;;;;;;5063494;28;20546;-81
2021/12/19 09:29:53;;;;;;;1.77;0.20;;;7.20;94.10;;;;;;5081015;28;20080;-82
2021/12/19 09:32:19;;;;;;;0.50;0.10;;;7.20;94.10;;;;;;5097798;28;20107;-81
2021/12/19 09:34:46;;;;;;;0.20;0.10;;;7.20;94.00;;;;;;5063608;28;20042;-81
2021/12/19 09:37:13;;;;;;;0.30;0.13;;;7.20;94.00;;;;;;5116047;28;20114;-81
2021/12/19 09:39:39;;;;;;;0.10;0.10;;;7.20;94.10;;;;;;5080293;28;20040;-80
2021/12/19 09:42:09;;;;;;;0.10;0.10;;;7.20;94.10;;;;;;5068246;28;20043;-81
2021/12/19 09:44:37;;;;;;;0.10;0.10;;;7.30;94.10;;;;;;5115669;28;20126;-81
2021/12/19 09:47:04;;;;;;;0.32;0.20;;;7.30;94.10;;;;;;5098058;28;20075;-81
2021/12/19 09:49:32;;;;;;;0.15;0.10;;;7.30;94.10;;;;;;5116320;28;20397;-81
2021/12/19 09:51:59;;;;;;;0.10;0.10;;;7.30;94.00;;;;;;5081922;28;20456;-81
2021/12/19 09:54:25;;;;;;;0.10;0.10;;;7.30;94.00;;;;;;5096589;28;20127;-81
2021/12/19 09:56:50;;;;;;;0.20;0.20;;;7.30;94.00;;;;;;5061669;28;20075;-81
2021/12/19 09:59:19;;;;;;;0.50;0.20;;;7.50;94.00;;;;;;5079089;28;20044;-80
2021/12/19 10:01:46;;;;;;;0.28;0.20;;;7.30;94.00;;;;;;5096525;28;20082;-80
2021/12/19 10:04:35;;;;;;;0.47;0.30;;;7.30;94.00;;;;;;5114687;28;20048;-81
2021/12/19 10:07:25;;;;;;;0.40;0.28;;;7.30;94.00;;;;;;5112703;28;20098;-81
2021/12/19 10:10:01;;;;;;;0.52;0.30;;;7.30;94.00;;;;;;5094635;28;20515;-82
2021/12/19 10:12:48;;;;;;;1.13;0.43;;;7.30;94.00;;;;;;5064032;28;20096;-81
2021/12/19 10:15:25;;;;;;;1.00;0.30;;;7.30;94.00;;;;;;5084804;28;20040;-81
2021/12/19 10:18:01;;;;;;;1.60;0.43;;;7.30;94.30;;;;;;5094555;28;20036;-82
2021/12/19 10:20:59;;;;;;;1.15;0.32;;;7.30;94.00;;;;;;5095837;28;20052;-82
2021/12/19 10:23:28;;;;;;;0.60;0.47;;;7.40;94.00;;;;;;5095461;28;20128;-82
2021/12/19 10:26:01;;;;;;;1.20;0.50;;;7.40;94.00;;;;;;5096115;28;20036;-81
2021/12/19 10:28:29;;;;;;;0.88;0.50;;;7.30;94.00;;;;;;5095932;28;20062;-82
2021/12/19 10:30:58;;;;;;;1.35;0.68;;;7.40;94.00;;;;;;5095953;28;20064;-81
2021/12/19 10:33:31;;;;;;;1.00;0.63;;;7.40;94.00;;;;;;5078855;28;20032;-82
2021/12/19 10:36:00;;;;;;;1.38;0.60;;;7.40;94.20;;;;;;5081120;28;20093;-81
2021/12/19 10:38:32;;;;;;;0.38;0.35;;;7.40;93.90;;;;;;5098455;28;20043;-81
2021/12/19 10:41:03;;;;;;;1.75;0.63;;;7.40;93.90;;;;;;5062370;28;20044;-81
2021/12/19 10:43:31;;;;;;;1.52;0.70;;;7.40;93.90;;;;;;5079283;28;21323;-82
2021/12/19 10:46:04;;;;;;;1.10;0.50;;;7.40;93.90;;;;;;5095646;28;20040;-82
2021/12/19 10:48:34;;;;;;;1.05;0.50;;;7.30;93.90;;;;;;5078584;28;20098;-81
2021/12/19 10:51:06;;;;;;;0.50;0.47;;;7.40;94.00;;;;;;5114242;28;20039;-81
2021/12/19 10:53:38;;;;;;;0.40;0.40;;;7.40;93.90;;;;;;5078557;28;20485;-82
2021/12/19 10:56:10;;;;;;;0.80;0.40;;;7.40;93.90;;;;;;5095638;28;20063;-80
2021/12/19 10:58:39;;;;;;;;;;;7.40;93.90;;;;;;5114006;28;20081;-79
2021/12/19 11:01:14;;;;;;;1.13;0.70;;;7.50;93.90;;;;;;5095666;28;19960;-79
2021/12/19 11:03:44;;;;;;;0.70;0.50;;;7.50;93.80;;;;;;5096676;28;20046;-79
2021/12/19 11:06:20;;;;;;;0.93;0.38;;;7.50;93.80;;;;;;5094518;28;20035;-78
2021/12/19 11:08:46;;;;;;;0.73;0.55;;;7.50;93.90;;;;;;5094056;28;20043;-80
2021/12/19 11:11:30;;;;;;;1.60;0.70;;;7.50;93.80;;;;;;5061844;28;20036;-78
2021/12/19 11:13:56;;;;;;;0.93;0.80;;;7.50;93.80;;;;;;5078243;28;20038;-79
2021/12/19 11:16:22;;;;;;;0.93;0.50;;;7.50;93.80;;;;;;5113779;28;20035;-79
2021/12/19 11:18:48;;;;;;;0.77;0.50;;;7.50;93.80;;;;;;5061410;28;20108;-81
2021/12/19 11:21:17;;;;;;;0.77;0.50;;;7.40;93.80;;;;;;5094883;28;20127;-78
2021/12/19 11:23:42;;;;;;;0.73;0.50;;;7.50;93.80;;;;;;5078390;28;20048;-79
2021/12/19 11:26:08;;;;;;;0.57;0.50;;;7.50;93.80;;;;;;5079652;28;20065;-79
2021/12/19 11:28:35;;;;;;;0.85;0.63;;;7.60;93.80;;;;;;5113257;28;20109;-79
2021/12/19 11:31:01;;;;;;;2.60;0.90;;;7.60;93.90;;;;;;5078230;28;20027;-79
2021/12/19 11:33:54;;;;;;;1.40;0.82;;;7.60;93.80;;;;;;5077778;28;20039;-81
2021/12/19 11:36:20;;;;;;;1.17;0.63;;;7.50;93.80;;;;;;5112939;28;20047;-81
2021/12/19 11:38:47;;;;;;;1.23;0.70;;;7.50;93.80;;;;;;5061253;28;20070;-81
2021/12/19 11:41:13;;;;;;;1.70;0.60;;;7.50;93.80;;;;;;5077976;28;20040;-80
2021/12/19 11:43:40;;;;;;;1.67;0.77;;;7.60;93.80;;;;;;5094507;28;20065;-80
2021/12/19 11:46:20;;;;;;;1.08;0.73;;;7.50;93.80;;;;;;5094920;28;20056;-80
2021/12/19 11:48:46;;;;;;;0.90;0.50;;;7.60;93.80;;;;;;5114300;28;20039;-80
2021/12/19 11:51:20;;;;;;;1.45;0.77;;;7.60;93.80;;;;;;5094658;28;20038;-80
2021/12/19 11:53:46;;;;;;;1.42;0.70;;;7.60;93.80;;;;;;5092831;28;20412;-81
2021/12/19 11:56:18;;;;;;;0.73;0.47;;;7.60;93.80;;;;;;5095118;28;20044;-80
2021/12/19 11:58:46;;;;;;;;;;;7.60;93.80;;;;;;5061916;28;20043;-80
2021/12/19 12:01:14;;;;;;;1.08;0.57;;;7.60;93.70;;;;;;5112910;28;19912;-80
2021/12/19 12:03:45;;;;;;;2.45;0.70;;;7.60;93.70;;;;;;5078221;28;20043;-80
2021/12/19 12:06:25;;;;;;;1.30;0.60;;;7.60;93.70;;;;;;5095005;28;20047;-80
2021/12/19 12:09:08;;;;;;;2.45;0.85;;;7.50;93.70;;;;;;5093513;28;20130;-81
2021/12/19 12:11:36;;;;;;;1.70;0.85;;;7.60;93.80;;;;;;5094467;28;20040;-80
2021/12/19 12:14:23;;;;;;;1.60;0.65;;;7.50;93.80;;;;;;5094992;28;20047;-81
2021/12/19 12:16:55;;;;;;;1.73;0.80;;;7.60;93.80;;;;;;5094636;28;20036;-81
2021/12/19 12:19:38;;;;;;;2.35;0.52;;;7.60;93.80;;;;;;5061300;28;20044;-80
2021/12/19 12:22:28;;;;;;;1.38;0.70;;;7.60;93.70;;;;;;5079733;28;20042;-80
2021/12/19 12:25:16;;;;;;;1.00;0.55;;;7.70;93.70;;;;;;5082012;28;20126;-80
2021/12/19 12:27:46;;;;;;;1.38;0.50;;;7.60;93.70;;;;;;5099060;28;20047;-80
2021/12/19 12:30:15;;;;;;;1.38;0.70;;;7.60;93.70;;;;;;5083659;28;20043;-80
2021/12/19 12:32:46;;;;;;;1.00;0.43;;;7.60;93.70;;;;;;5099501;28;20058;-83
2021/12/19 12:35:13;;;;;;;0.70;0.43;;;7.60;93.60;;;;;;5078054;28;20036;-79
2021/12/19 12:37:41;;;;;;;1.05;0.80;;;7.50;93.60;;;;;;5112334;28;20088;-80
2021/12/19 12:40:27;;;;;;;0.73;0.50;;;7.50;93.60;;;;;;5082812;28;20044;-81
2021/12/19 12:43:00;;;;;;;0.93;0.57;;;7.60;93.70;;;;;;5039283;28;20106;-78
2021/12/19 12:45:28;;;;;;;1.27;0.52;;;7.50;93.70;;;;;;5055451;28;20045;-78
2021/12/19 12:47:54;;;;;;;0.73;0.40;;;7.60;93.80;;;;;;5039168;28;20135;-79
2021/12/19 12:50:23;;;;;;;1.38;0.80;;;7.60;93.80;;;;;;5037804;28;20049;-79
2021/12/19 12:52:49;;;;;;;2.55;0.60;;;7.60;93.70;;;;;;5039876;28;20044;-78
2021/12/19 12:55:15;;;;;;;1.10;0.50;;;7.60;93.70;;;;;;5053454;28;20040;-77
2021/12/19 12:57:43;;;;;;;1.77;0.50;;;7.60;93.70;;;;;;5037265;28;20056;-78
2021/12/19 13:00:19;;;;;;;1.23;0.60;;;7.60;93.70;;;;;;5055462;28;20521;-78
2021/12/19 13:02:53;;;;;;;0.85;0.55;;;7.70;93.70;;;;;;5037652;28;20119;-78
2021/12/19 13:05:18;;;;;;;1.83;0.77;;;7.60;93.60;;;;;;5024252;28;20096;-79
2021/12/19 13:07:44;;;;;;;0.73;0.47;;;7.70;93.70;;;;;;5068609;28;20060;-79
2021/12/19 13:10:10;;;;;;;0.93;0.40;;;7.60;93.70;;;;;;5065114;28;20047;-79
2021/12/19 13:12:38;;;;;;;0.85;0.68;;;7.60;93.80;;;;;;5101161;28;20465;-78
2021/12/19 13:15:10;;;;;;;0.60;0.40;;;7.60;93.70;;;;;;5117693;28;20541;-79
2021/12/19 13:17:41;;;;;;;0.98;0.60;;;7.60;93.70;;;;;;5082918;28;20058;-80
2021/12/19 13:20:21;;;;;;;0.63;0.50;;;7.70;93.70;;;;;;5084846;28;20047;-78
2021/12/19 13:22:59;;;;;;;0.95;0.55;;;7.60;93.70;;;;;;5118354;28;20040;-79
2021/12/19 13:25:34;;;;;;;0.85;0.40;;;7.60;93.70;;;;;;5117695;28;20046;-81
2021/12/19 13:28:05;;;;;;;2.22;0.77;;;7.60;93.70;;;;;;5067832;28;20039;-79
2021/12/19 13:30:34;;;;;;;1.92;0.40;;;7.60;93.70;;;;;;5116246;28;20039;-78
2021/12/19 13:33:07;;;;;;;0.40;0.20;;;7.60;93.70;;;;;;5102209;28;20043;-80
2021/12/19 13:35:36;;;;;;;1.20;0.50;;;7.70;93.70;;;;;;5086862;28;20047;-78
2021/12/19 13:38:07;;;;;;;0.40;0.40;;;7.80;93.70;;;;;;5097705;28;20090;-79
2021/12/19 13:40:39;;;;;;;1.25;0.50;;;7.70;93.60;;;;;;5102802;28;20040;-78
2021/12/19 13:43:08;;;;;;;0.47;0.32;;;7.80;93.70;;;;;;5119613;28;20039;-81
2021/12/19 13:45:39;;;;;;;1.48;0.60;;;7.70;93.60;;;;;;5115787;28;20044;-79
2021/12/19 13:48:09;;;;;;;2.45;0.60;;;7.80;93.60;;;;;;5100459;28;20492;-79
2021/12/19 13:50:40;;;;;;;0.40;0.40;;;7.70;93.60;;;;;;5115234;28;20473;-79
2021/12/19 13:53:06;;;;;;;1.65;0.45;;;7.70;93.60;;;;;;5079995;28;20498;-78
2021/12/19 13:55:42;;;;;;;0.82;0.50;;;7.70;93.70;;;;;;5114400;28;20115;-77
2021/12/19 13:58:23;;;;;;;0.57;0.52;;;7.70;93.70;;;;;;5062468;28;20054;-83
2021/12/19 14:03:52;;;;;;;0.93;0.40;;;7.60;93.60;;;;;;4937158;29;20050;-83